Terminal Aerodrome Forecast
Issued by NWS

Home | Current Version | Previous Version | Graphics & Text | Print | Product List | Glossary On
Versions: 1 2 3 4 5 6 7 8 9 10 11 12 13 14 15 16 17 18 19
713
FTUS43 KICT 261132
TAFHUT
TAF
KHUT 261132Z 2612/2712 19014G20KT P6SM VCSH SCT100 BKN250
     FM261500 20016G24KT P6SM SCT080 BKN250
     FM262100 21015G23KT P6SM VCTS BKN080CB
     FM270000 25007KT P6SM VCTS BKN080CB
     FM270400 36010KT P6SM VCSH BKN080=

USA.gov is the U.S. government's official web portal to all federal, state and local government web resources and services.